sensor_id;sensor_type;location;lat;lon;timestamp;P1;durP1;ratioP1;P2;durP2;ratioP2
12681;SDS011;6405;59.208;18.216;2023-09-18T00:01:54;1.83;;;0.67;;
12681;SDS011;6405;59.208;18.216;2023-09-18T00:04:20;1.93;;;1.20;;
12681;SDS011;6405;59.208;18.216;2023-09-18T00:06:46;1.40;;;0.70;;
12681;SDS011;6405;59.208;18.216;2023-09-18T00:09:12;2.33;;;0.90;;
12681;SDS011;6405;59.208;18.216;2023-09-18T00:11:39;2.00;;;1.00;;
12681;SDS011;6405;59.208;18.216;2023-09-18T00:14:05;3.13;;;1.20;;
12681;SDS011;6405;59.208;18.216;2023-09-18T00:16:32;1.73;;;1.07;;
12681;SDS011;6405;59.208;18.216;2023-09-18T00:18:58;1.70;;;1.20;;
12681;SDS011;6405;59.208;18.216;2023-09-18T00:21:24;2.17;;;1.10;;
12681;SDS011;6405;59.208;18.216;2023-09-18T00:23:50;1.10;;;0.90;;
12681;SDS011;6405;59.208;18.216;2023-09-18T00:26:17;1.33;;;0.70;;
12681;SDS011;6405;59.208;18.216;2023-09-18T00:28:42;2.33;;;0.80;;
12681;SDS011;6405;59.208;18.216;2023-09-18T00:31:08;3.80;;;1.00;;
12681;SDS011;6405;59.208;18.216;2023-09-18T00:33:35;1.53;;;1.03;;
12681;SDS011;6405;59.208;18.216;2023-09-18T00:36:00;3.57;;;0.90;;
12681;SDS011;6405;59.208;18.216;2023-09-18T00:38:26;1.93;;;0.90;;
12681;SDS011;6405;59.208;18.216;2023-09-18T00:40:52;1.60;;;0.80;;
12681;SDS011;6405;59.208;18.216;2023-09-18T00:43:17;1.93;;;1.20;;
12681;SDS011;6405;59.208;18.216;2023-09-18T00:45:47;3.60;;;0.83;;
12681;SDS011;6405;59.208;18.216;2023-09-18T00:48:17;1.67;;;0.90;;
12681;SDS011;6405;59.208;18.216;2023-09-18T00:50:46;1.73;;;0.80;;
12681;SDS011;6405;59.208;18.216;2023-09-18T00:53:14;4.70;;;0.97;;
12681;SDS011;6405;59.208;18.216;2023-09-18T00:55:42;2.00;;;0.87;;
12681;SDS011;6405;59.208;18.216;2023-09-18T00:58:08;3.13;;;0.97;;
12681;SDS011;6405;59.208;18.216;2023-09-18T01:00:35;2.23;;;0.83;;
12681;SDS011;6405;59.208;18.216;2023-09-18T01:03:01;2.70;;;0.90;;
12681;SDS011;6405;59.208;18.216;2023-09-18T01:05:30;1.17;;;0.87;;
12681;SDS011;6405;59.208;18.216;2023-09-18T01:08:01;0.80;;;0.60;;
12681;SDS011;6405;59.208;18.216;2023-09-18T01:10:44;1.10;;;0.70;;
12681;SDS011;6405;59.208;18.216;2023-09-18T01:13:39;1.83;;;1.00;;
12681;SDS011;6405;59.208;18.216;2023-09-18T01:16:14;1.50;;;0.80;;
12681;SDS011;6405;59.208;18.216;2023-09-18T01:18:49;1.10;;;0.80;;
12681;SDS011;6405;59.208;18.216;2023-09-18T01:21:15;0.87;;;0.80;;
12681;SDS011;6405;59.208;18.216;2023-09-18T01:23:43;1.60;;;0.87;;
12681;SDS011;6405;59.208;18.216;2023-09-18T01:26:09;4.90;;;1.07;;
12681;SDS011;6405;59.208;18.216;2023-09-18T01:28:34;1.43;;;0.70;;
12681;SDS011;6405;59.208;18.216;2023-09-18T01:31:00;1.43;;;0.87;;
12681;SDS011;6405;59.208;18.216;2023-09-18T01:33:26;2.27;;;0.90;;
12681;SDS011;6405;59.208;18.216;2023-09-18T01:35:53;1.03;;;0.67;;
12681;SDS011;6405;59.208;18.216;2023-09-18T01:38:21;1.10;;;0.80;;
12681;SDS011;6405;59.208;18.216;2023-09-18T01:40:49;0.70;;;0.70;;
12681;SDS011;6405;59.208;18.216;2023-09-18T01:43:16;3.13;;;1.10;;
12681;SDS011;6405;59.208;18.216;2023-09-18T01:45:42;1.20;;;0.90;;
12681;SDS011;6405;59.208;18.216;2023-09-18T01:48:08;1.10;;;1.00;;
12681;SDS011;6405;59.208;18.216;2023-09-18T01:50:36;1.13;;;0.90;;
12681;SDS011;6405;59.208;18.216;2023-09-18T01:53:02;1.03;;;0.93;;
12681;SDS011;6405;59.208;18.216;2023-09-18T01:55:28;0.93;;;0.80;;
12681;SDS011;6405;59.208;18.216;2023-09-18T01:57:55;1.27;;;0.97;;
12681;SDS011;6405;59.208;18.216;2023-09-18T02:00:21;0.87;;;0.80;;
12681;SDS011;6405;59.208;18.216;2023-09-18T02:02:46;1.33;;;1.03;;
12681;SDS011;6405;59.208;18.216;2023-09-18T02:05:12;2.83;;;1.27;;
12681;SDS011;6405;59.208;18.216;2023-09-18T02:07:38;0.87;;;0.80;;
12681;SDS011;6405;59.208;18.216;2023-09-18T02:10:04;1.30;;;1.03;;
12681;SDS011;6405;59.208;18.216;2023-09-18T02:12:30;4.13;;;1.47;;
12681;SDS011;6405;59.208;18.216;2023-09-18T02:14:56;2.93;;;1.00;;
12681;SDS011;6405;59.208;18.216;2023-09-18T02:17:23;2.53;;;1.17;;
12681;SDS011;6405;59.208;18.216;2023-09-18T02:19:49;3.50;;;0.97;;
12681;SDS011;6405;59.208;18.216;2023-09-18T02:22:15;2.60;;;0.80;;
12681;SDS011;6405;59.208;18.216;2023-09-18T02:24:40;1.60;;;0.80;;
12681;SDS011;6405;59.208;18.216;2023-09-18T02:27:06;2.07;;;0.97;;
12681;SDS011;6405;59.208;18.216;2023-09-18T02:29:32;4.10;;;1.00;;
12681;SDS011;6405;59.208;18.216;2023-09-18T02:31:58;1.33;;;0.80;;
12681;SDS011;6405;59.208;18.216;2023-09-18T02:34:23;2.70;;;0.80;;
12681;SDS011;6405;59.208;18.216;2023-09-18T02:36:49;1.40;;;0.70;;
12681;SDS011;6405;59.208;18.216;2023-09-18T02:39:14;0.93;;;0.70;;
12681;SDS011;6405;59.208;18.216;2023-09-18T02:41:40;2.60;;;0.87;;
12681;SDS011;6405;59.208;18.216;2023-09-18T02:44:06;1.40;;;1.20;;
12681;SDS011;6405;59.208;18.216;2023-09-18T02:46:31;2.10;;;1.00;;
12681;SDS011;6405;59.208;18.216;2023-09-18T02:48:57;0.97;;;0.80;;
12681;SDS011;6405;59.208;18.216;2023-09-18T02:51:23;2.47;;;0.80;;
12681;SDS011;6405;59.208;18.216;2023-09-18T02:53:48;3.27;;;0.80;;
12681;SDS011;6405;59.208;18.216;2023-09-18T02:56:14;1.50;;;0.80;;
12681;SDS011;6405;59.208;18.216;2023-09-18T02:58:40;1.53;;;0.90;;
12681;SDS011;6405;59.208;18.216;2023-09-18T03:01:06;1.97;;;1.07;;
12681;SDS011;6405;59.208;18.216;2023-09-18T03:03:33;0.83;;;0.67;;
12681;SDS011;6405;59.208;18.216;2023-09-18T03:06:02;1.00;;;0.70;;
12681;SDS011;6405;59.208;18.216;2023-09-18T03:08:30;1.20;;;0.87;;
12681;SDS011;6405;59.208;18.216;2023-09-18T03:10:56;0.93;;;0.70;;
12681;SDS011;6405;59.208;18.216;2023-09-18T03:13:22;1.83;;;0.90;;
12681;SDS011;6405;59.208;18.216;2023-09-18T03:15:47;1.83;;;0.83;;
12681;SDS011;6405;59.208;18.216;2023-09-18T03:18:13;0.93;;;0.70;;
12681;SDS011;6405;59.208;18.216;2023-09-18T03:20:39;2.10;;;0.80;;
12681;SDS011;6405;59.208;18.216;2023-09-18T03:23:05;1.20;;;0.80;;
12681;SDS011;6405;59.208;18.216;2023-09-18T03:25:31;3.43;;;0.90;;
12681;SDS011;6405;59.208;18.216;2023-09-18T03:27:57;1.90;;;0.80;;
12681;SDS011;6405;59.208;18.216;2023-09-18T03:30:23;1.27;;;0.57;;
12681;SDS011;6405;59.208;18.216;2023-09-18T03:32:50;1.63;;;0.57;;
12681;SDS011;6405;59.208;18.216;2023-09-18T03:35:16;2.67;;;0.97;;
12681;SDS011;6405;59.208;18.216;2023-09-18T03:37:44;1.50;;;0.80;;
12681;SDS011;6405;59.208;18.216;2023-09-18T03:40:10;0.93;;;0.83;;
12681;SDS011;6405;59.208;18.216;2023-09-18T03:42:36;2.43;;;0.90;;
12681;SDS011;6405;59.208;18.216;2023-09-18T03:45:02;2.20;;;0.60;;
12681;SDS011;6405;59.208;18.216;2023-09-18T03:47:28;1.73;;;0.90;;
12681;SDS011;6405;59.208;18.216;2023-09-18T03:49:54;2.43;;;0.80;;
12681;SDS011;6405;59.208;18.216;2023-09-18T03:52:19;0.80;;;0.80;;
12681;SDS011;6405;59.208;18.216;2023-09-18T03:54:45;0.70;;;0.70;;
12681;SDS011;6405;59.208;18.216;2023-09-18T03:57:11;2.77;;;1.10;;
12681;SDS011;6405;59.208;18.216;2023-09-18T03:59:36;1.17;;;0.77;;
12681;SDS011;6405;59.208;18.216;2023-09-18T04:02:02;1.03;;;0.80;;
12681;SDS011;6405;59.208;18.216;2023-09-18T04:04:28;2.97;;;0.70;;
12681;SDS011;6405;59.208;18.216;2023-09-18T04:06:55;2.40;;;0.77;;
12681;SDS011;6405;59.208;18.216;2023-09-18T04:09:20;0.80;;;0.70;;
12681;SDS011;6405;59.208;18.216;2023-09-18T04:11:46;1.83;;;0.70;;
12681;SDS011;6405;59.208;18.216;2023-09-18T04:14:12;1.03;;;0.73;;
12681;SDS011;6405;59.208;18.216;2023-09-18T04:16:37;2.17;;;1.00;;
12681;SDS011;6405;59.208;18.216;2023-09-18T04:19:06;1.93;;;0.90;;
12681;SDS011;6405;59.208;18.216;2023-09-18T04:21:33;4.30;;;0.70;;
12681;SDS011;6405;59.208;18.216;2023-09-18T04:23:59;0.80;;;0.70;;
12681;SDS011;6405;59.208;18.216;2023-09-18T04:26:25;1.03;;;0.70;;
12681;SDS011;6405;59.208;18.216;2023-09-18T04:28:54;0.77;;;0.77;;
12681;SDS011;6405;59.208;18.216;2023-09-18T04:31:21;4.00;;;0.80;;
12681;SDS011;6405;59.208;18.216;2023-09-18T04:33:46;1.03;;;0.90;;
12681;SDS011;6405;59.208;18.216;2023-09-18T04:36:12;2.87;;;0.87;;
12681;SDS011;6405;59.208;18.216;2023-09-18T04:38:38;1.10;;;0.93;;
12681;SDS011;6405;59.208;18.216;2023-09-18T04:41:04;1.23;;;0.60;;
12681;SDS011;6405;59.208;18.216;2023-09-18T04:43:32;4.23;;;0.90;;
12681;SDS011;6405;59.208;18.216;2023-09-18T04:46:00;2.80;;;0.90;;
12681;SDS011;6405;59.208;18.216;2023-09-18T04:48:30;1.23;;;0.70;;
12681;SDS011;6405;59.208;18.216;2023-09-18T04:50:57;2.07;;;0.80;;
12681;SDS011;6405;59.208;18.216;2023-09-18T04:53:23;1.30;;;1.00;;
12681;SDS011;6405;59.208;18.216;2023-09-18T04:55:49;2.73;;;0.90;;
12681;SDS011;6405;59.208;18.216;2023-09-18T04:58:15;5.03;;;1.20;;
12681;SDS011;6405;59.208;18.216;2023-09-18T05:00:42;8.73;;;1.57;;
12681;SDS011;6405;59.208;18.216;2023-09-18T05:03:08;0.97;;;0.83;;
12681;SDS011;6405;59.208;18.216;2023-09-18T05:05:35;0.87;;;0.83;;
12681;SDS011;6405;59.208;18.216;2023-09-18T05:08:05;4.43;;;0.90;;
12681;SDS011;6405;59.208;18.216;2023-09-18T05:10:36;1.93;;;0.60;;
12681;SDS011;6405;59.208;18.216;2023-09-18T05:13:02;0.70;;;0.63;;
12681;SDS011;6405;59.208;18.216;2023-09-18T05:15:29;0.87;;;0.87;;
12681;SDS011;6405;59.208;18.216;2023-09-18T05:17:55;3.33;;;0.90;;
12681;SDS011;6405;59.208;18.216;2023-09-18T05:20:26;5.97;;;0.97;;
12681;SDS011;6405;59.208;18.216;2023-09-18T05:22:53;2.93;;;0.83;;
12681;SDS011;6405;59.208;18.216;2023-09-18T05:25:20;1.53;;;1.00;;
12681;SDS011;6405;59.208;18.216;2023-09-18T05:27:48;4.40;;;1.10;;
12681;SDS011;6405;59.208;18.216;2023-09-18T05:30:20;3.07;;;1.00;;
12681;SDS011;6405;59.208;18.216;2023-09-18T05:33:06;8.73;;;1.20;;
12681;SDS011;6405;59.208;18.216;2023-09-18T05:35:40;1.73;;;1.13;;
12681;SDS011;6405;59.208;18.216;2023-09-18T05:38:07;1.33;;;0.87;;
12681;SDS011;6405;59.208;18.216;2023-09-18T05:40:38;1.70;;;1.10;;
12681;SDS011;6405;59.208;18.216;2023-09-18T05:43:04;2.43;;;0.90;;
12681;SDS011;6405;59.208;18.216;2023-09-18T05:45:30;2.40;;;0.80;;
12681;SDS011;6405;59.208;18.216;2023-09-18T05:47:57;1.90;;;0.93;;
12681;SDS011;6405;59.208;18.216;2023-09-18T05:50:29;4.73;;;1.30;;
12681;SDS011;6405;59.208;18.216;2023-09-18T05:53:00;2.40;;;1.00;;
12681;SDS011;6405;59.208;18.216;2023-09-18T05:55:29;1.37;;;0.77;;
12681;SDS011;6405;59.208;18.216;2023-09-18T05:57:58;3.53;;;1.27;;
12681;SDS011;6405;59.208;18.216;2023-09-18T06:00:24;1.87;;;1.20;;
12681;SDS011;6405;59.208;18.216;2023-09-18T06:02:50;5.03;;;1.20;;
12681;SDS011;6405;59.208;18.216;2023-09-18T06:05:16;2.27;;;1.00;;
12681;SDS011;6405;59.208;18.216;2023-09-18T06:07:46;1.97;;;1.07;;
12681;SDS011;6405;59.208;18.216;2023-09-18T06:10:15;3.10;;;1.00;;
12681;SDS011;6405;59.208;18.216;2023-09-18T06:12:41;4.53;;;1.40;;
12681;SDS011;6405;59.208;18.216;2023-09-18T06:15:08;1.50;;;1.10;;
12681;SDS011;6405;59.208;18.216;2023-09-18T06:17:38;2.90;;;1.00;;
12681;SDS011;6405;59.208;18.216;2023-09-18T06:20:05;3.93;;;1.40;;
12681;SDS011;6405;59.208;18.216;2023-09-18T06:22:35;1.20;;;0.90;;
12681;SDS011;6405;59.208;18.216;2023-09-18T06:25:05;1.13;;;1.00;;
12681;SDS011;6405;59.208;18.216;2023-09-18T06:27:34;2.33;;;0.70;;
12681;SDS011;6405;59.208;18.216;2023-09-18T06:30:00;2.80;;;1.13;;
12681;SDS011;6405;59.208;18.216;2023-09-18T06:32:26;1.57;;;1.30;;
12681;SDS011;6405;59.208;18.216;2023-09-18T06:34:52;2.57;;;1.20;;
12681;SDS011;6405;59.208;18.216;2023-09-18T06:37:17;2.33;;;1.17;;
12681;SDS011;6405;59.208;18.216;2023-09-18T06:39:44;2.63;;;1.50;;
12681;SDS011;6405;59.208;18.216;2023-09-18T06:42:09;1.40;;;1.30;;
12681;SDS011;6405;59.208;18.216;2023-09-18T06:44:35;1.63;;;1.50;;
12681;SDS011;6405;59.208;18.216;2023-09-18T06:47:01;2.70;;;2.27;;
12681;SDS011;6405;59.208;18.216;2023-09-18T06:49:26;7.00;;;2.50;;
12681;SDS011;6405;59.208;18.216;2023-09-18T06:51:52;5.20;;;3.03;;
12681;SDS011;6405;59.208;18.216;2023-09-18T06:54:18;7.20;;;4.27;;
12681;SDS011;6405;59.208;18.216;2023-09-18T06:56:44;5.70;;;3.50;;
12681;SDS011;6405;59.208;18.216;2023-09-18T06:59:10;3.77;;;2.93;;
12681;SDS011;6405;59.208;18.216;2023-09-18T07:01:37;3.13;;;2.17;;
12681;SDS011;6405;59.208;18.216;2023-09-18T07:04:03;2.80;;;1.90;;
12681;SDS011;6405;59.208;18.216;2023-09-18T07:06:30;3.87;;;1.80;;
12681;SDS011;6405;59.208;18.216;2023-09-18T07:08:55;1.37;;;1.10;;
12681;SDS011;6405;59.208;18.216;2023-09-18T07:11:21;2.47;;;1.10;;
12681;SDS011;6405;59.208;18.216;2023-09-18T07:13:47;3.30;;;1.20;;
12681;SDS011;6405;59.208;18.216;2023-09-18T07:16:13;2.03;;;0.90;;
12681;SDS011;6405;59.208;18.216;2023-09-18T07:18:39;1.47;;;0.97;;
12681;SDS011;6405;59.208;18.216;2023-09-18T07:21:04;2.40;;;1.00;;
12681;SDS011;6405;59.208;18.216;2023-09-18T07:23:30;1.40;;;0.77;;
12681;SDS011;6405;59.208;18.216;2023-09-18T07:25:56;1.83;;;0.80;;
12681;SDS011;6405;59.208;18.216;2023-09-18T07:28:23;1.60;;;0.73;;
12681;SDS011;6405;59.208;18.216;2023-09-18T07:30:49;1.77;;;0.90;;
12681;SDS011;6405;59.208;18.216;2023-09-18T07:33:15;1.50;;;0.70;;
12681;SDS011;6405;59.208;18.216;2023-09-18T07:35:45;1.50;;;0.60;;
12681;SDS011;6405;59.208;18.216;2023-09-18T07:38:14;1.27;;;0.77;;
12681;SDS011;6405;59.208;18.216;2023-09-18T07:40:40;1.80;;;0.70;;
12681;SDS011;6405;59.208;18.216;2023-09-18T07:43:06;2.90;;;0.60;;
12681;SDS011;6405;59.208;18.216;2023-09-18T07:45:33;0.90;;;0.50;;
12681;SDS011;6405;59.208;18.216;2023-09-18T07:47:59;1.27;;;0.60;;
12681;SDS011;6405;59.208;18.216;2023-09-18T07:50:25;1.70;;;0.87;;
12681;SDS011;6405;59.208;18.216;2023-09-18T07:52:52;2.07;;;0.70;;
12681;SDS011;6405;59.208;18.216;2023-09-18T07:55:17;2.10;;;0.73;;
12681;SDS011;6405;59.208;18.216;2023-09-18T07:57:43;0.90;;;0.57;;
12681;SDS011;6405;59.208;18.216;2023-09-18T08:00:10;1.23;;;0.60;;
12681;SDS011;6405;59.208;18.216;2023-09-18T08:02:38;1.10;;;0.80;;
12681;SDS011;6405;59.208;18.216;2023-09-18T08:05:05;2.23;;;0.80;;
12681;SDS011;6405;59.208;18.216;2023-09-18T08:07:31;2.23;;;0.50;;
12681;SDS011;6405;59.208;18.216;2023-09-18T08:09:57;2.10;;;0.93;;
12681;SDS011;6405;59.208;18.216;2023-09-18T08:12:23;2.93;;;0.50;;
12681;SDS011;6405;59.208;18.216;2023-09-18T08:14:49;0.70;;;0.60;;
12681;SDS011;6405;59.208;18.216;2023-09-18T08:17:15;2.00;;;0.40;;
12681;SDS011;6405;59.208;18.216;2023-09-18T08:19:41;0.60;;;0.40;;
12681;SDS011;6405;59.208;18.216;2023-09-18T08:22:09;0.70;;;0.60;;
12681;SDS011;6405;59.208;18.216;2023-09-18T08:24:37;2.33;;;0.70;;
12681;SDS011;6405;59.208;18.216;2023-09-18T08:27:02;1.17;;;0.60;;
12681;SDS011;6405;59.208;18.216;2023-09-18T08:29:28;3.20;;;0.77;;
12681;SDS011;6405;59.208;18.216;2023-09-18T08:31:54;0.40;;;0.40;;
12681;SDS011;6405;59.208;18.216;2023-09-18T08:34:20;1.20;;;0.57;;
12681;SDS011;6405;59.208;18.216;2023-09-18T08:36:45;1.00;;;0.50;;
12681;SDS011;6405;59.208;18.216;2023-09-18T08:39:11;1.63;;;0.70;;
12681;SDS011;6405;59.208;18.216;2023-09-18T08:41:41;1.40;;;0.60;;
12681;SDS011;6405;59.208;18.216;2023-09-18T08:44:08;0.90;;;0.60;;
12681;SDS011;6405;59.208;18.216;2023-09-18T08:46:34;1.53;;;0.60;;
12681;SDS011;6405;59.208;18.216;2023-09-18T08:49:03;2.33;;;0.57;;
12681;SDS011;6405;59.208;18.216;2023-09-18T08:51:30;1.87;;;0.43;;
12681;SDS011;6405;59.208;18.216;2023-09-18T08:53:57;0.70;;;0.50;;
12681;SDS011;6405;59.208;18.216;2023-09-18T08:56:23;1.10;;;0.40;;
12681;SDS011;6405;59.208;18.216;2023-09-18T08:58:49;0.70;;;0.50;;
12681;SDS011;6405;59.208;18.216;2023-09-18T09:01:15;1.47;;;0.60;;
12681;SDS011;6405;59.208;18.216;2023-09-18T09:03:41;2.03;;;0.70;;
12681;SDS011;6405;59.208;18.216;2023-09-18T09:06:08;1.83;;;0.70;;
12681;SDS011;6405;59.208;18.216;2023-09-18T09:08:35;3.07;;;0.90;;
12681;SDS011;6405;59.208;18.216;2023-09-18T09:11:01;2.50;;;0.40;;
12681;SDS011;6405;59.208;18.216;2023-09-18T09:13:27;1.57;;;0.57;;
12681;SDS011;6405;59.208;18.216;2023-09-18T09:15:54;5.60;;;0.80;;
12681;SDS011;6405;59.208;18.216;2023-09-18T09:18:25;1.87;;;0.60;;
12681;SDS011;6405;59.208;18.216;2023-09-18T09:20:56;1.43;;;0.50;;
12681;SDS011;6405;59.208;18.216;2023-09-18T09:23:28;0.50;;;0.40;;
12681;SDS011;6405;59.208;18.216;2023-09-18T09:26:13;1.30;;;0.60;;
12681;SDS011;6405;59.208;18.216;2023-09-18T09:28:40;2.30;;;0.53;;
12681;SDS011;6405;59.208;18.216;2023-09-18T09:31:08;1.70;;;0.70;;
12681;SDS011;6405;59.208;18.216;2023-09-18T09:33:35;0.70;;;0.50;;
12681;SDS011;6405;59.208;18.216;2023-09-18T09:36:06;1.23;;;0.50;;
12681;SDS011;6405;59.208;18.216;2023-09-18T09:38:33;1.47;;;0.50;;
12681;SDS011;6405;59.208;18.216;2023-09-18T09:40:59;1.70;;;0.73;;
12681;SDS011;6405;59.208;18.216;2023-09-18T09:43:27;3.10;;;0.83;;
12681;SDS011;6405;59.208;18.216;2023-09-18T09:45:57;1.80;;;0.50;;
12681;SDS011;6405;59.208;18.216;2023-09-18T09:48:23;2.90;;;0.70;;
12681;SDS011;6405;59.208;18.216;2023-09-18T09:50:52;1.43;;;0.40;;
12681;SDS011;6405;59.208;18.216;2023-09-18T09:56:13;1.23;;;0.70;;
12681;SDS011;6405;59.208;18.216;2023-09-18T09:58:44;0.90;;;0.57;;
12681;SDS011;6405;59.208;18.216;2023-09-18T10:01:14;3.27;;;0.63;;
12681;SDS011;6405;59.208;18.216;2023-09-18T10:03:43;1.53;;;0.50;;
12681;SDS011;6405;59.208;18.216;2023-09-18T10:06:09;6.30;;;0.80;;
12681;SDS011;6405;59.208;18.216;2023-09-18T10:08:38;0.50;;;0.50;;
12681;SDS011;6405;59.208;18.216;2023-09-18T10:11:06;1.27;;;0.50;;
12681;SDS011;6405;59.208;18.216;2023-09-18T10:16:20;2.47;;;0.90;;
12681;SDS011;6405;59.208;18.216;2023-09-18T10:24:36;0.83;;;0.60;;
12681;SDS011;6405;59.208;18.216;2023-09-18T10:27:06;1.30;;;0.50;;
12681;SDS011;6405;59.208;18.216;2023-09-18T10:29:34;0.57;;;0.33;;
12681;SDS011;6405;59.208;18.216;2023-09-18T10:32:05;0.50;;;0.40;;
12681;SDS011;6405;59.208;18.216;2023-09-18T10:34:35;1.33;;;0.37;;
12681;SDS011;6405;59.208;18.216;2023-09-18T10:37:02;0.97;;;0.50;;
12681;SDS011;6405;59.208;18.216;2023-09-18T10:39:34;0.50;;;0.40;;
12681;SDS011;6405;59.208;18.216;2023-09-18T10:42:02;2.13;;;0.60;;
12681;SDS011;6405;59.208;18.216;2023-09-18T10:44:29;2.60;;;0.60;;
12681;SDS011;6405;59.208;18.216;2023-09-18T10:46:57;1.10;;;0.50;;
12681;SDS011;6405;59.208;18.216;2023-09-18T10:49:23;1.13;;;0.40;;
12681;SDS011;6405;59.208;18.216;2023-09-18T10:51:52;1.77;;;0.47;;
12681;SDS011;6405;59.208;18.216;2023-09-18T10:54:23;1.87;;;0.67;;
12681;SDS011;6405;59.208;18.216;2023-09-18T10:56:50;1.07;;;0.50;;
12681;SDS011;6405;59.208;18.216;2023-09-18T10:59:16;1.43;;;0.47;;
12681;SDS011;6405;59.208;18.216;2023-09-18T11:01:42;2.50;;;0.90;;
12681;SDS011;6405;59.208;18.216;2023-09-18T11:04:09;0.73;;;0.57;;
12681;SDS011;6405;59.208;18.216;2023-09-18T11:09:29;2.53;;;0.50;;
12681;SDS011;6405;59.208;18.216;2023-09-18T11:14:48;1.03;;;0.70;;
12681;SDS011;6405;59.208;18.216;2023-09-18T11:17:38;0.30;;;0.30;;
12681;SDS011;6405;59.208;18.216;2023-09-18T11:20:23;5.40;;;1.30;;
12681;SDS011;6405;59.208;18.216;2023-09-18T11:25:38;0.83;;;0.40;;
12681;SDS011;6405;59.208;18.216;2023-09-18T11:28:16;1.73;;;0.50;;
12681;SDS011;6405;59.208;18.216;2023-09-18T11:30:49;1.63;;;0.50;;
12681;SDS011;6405;59.208;18.216;2023-09-18T11:33:16;2.47;;;0.30;;
12681;SDS011;6405;59.208;18.216;2023-09-18T11:35:55;0.73;;;0.30;;
12681;SDS011;6405;59.208;18.216;2023-09-18T11:38:21;1.90;;;0.67;;
12681;SDS011;6405;59.208;18.216;2023-09-18T11:40:50;2.00;;;0.70;;
12681;SDS011;6405;59.208;18.216;2023-09-18T11:43:21;1.70;;;0.70;;
12681;SDS011;6405;59.208;18.216;2023-09-18T11:45:59;0.60;;;0.50;;
12681;SDS011;6405;59.208;18.216;2023-09-18T11:48:27;1.00;;;0.40;;
12681;SDS011;6405;59.208;18.216;2023-09-18T11:50:54;2.23;;;0.57;;
12681;SDS011;6405;59.208;18.216;2023-09-18T11:53:22;1.07;;;0.50;;
12681;SDS011;6405;59.208;18.216;2023-09-18T11:55:49;2.30;;;0.50;;
12681;SDS011;6405;59.208;18.216;2023-09-18T11:58:15;0.80;;;0.47;;
12681;SDS011;6405;59.208;18.216;2023-09-18T12:00:41;3.23;;;0.50;;
12681;SDS011;6405;59.208;18.216;2023-09-18T12:03:17;1.70;;;0.40;;
12681;SDS011;6405;59.208;18.216;2023-09-18T12:08:19;1.07;;;0.40;;
12681;SDS011;6405;59.208;18.216;2023-09-18T12:10:48;2.23;;;0.50;;
12681;SDS011;6405;59.208;18.216;2023-09-18T12:13:17;1.83;;;0.70;;
12681;SDS011;6405;59.208;18.216;2023-09-18T12:15:43;1.77;;;0.60;;
12681;SDS011;6405;59.208;18.216;2023-09-18T12:18:09;3.07;;;0.50;;
12681;SDS011;6405;59.208;18.216;2023-09-18T12:20:44;1.67;;;0.50;;
12681;SDS011;6405;59.208;18.216;2023-09-18T12:23:11;2.47;;;1.03;;
12681;SDS011;6405;59.208;18.216;2023-09-18T12:25:38;1.30;;;0.50;;
12681;SDS011;6405;59.208;18.216;2023-09-18T12:28:05;2.83;;;0.63;;
12681;SDS011;6405;59.208;18.216;2023-09-18T12:30:32;0.50;;;0.40;;
12681;SDS011;6405;59.208;18.216;2023-09-18T12:32:59;1.63;;;0.70;;
12681;SDS011;6405;59.208;18.216;2023-09-18T12:35:26;1.63;;;0.60;;
12681;SDS011;6405;59.208;18.216;2023-09-18T12:37:56;1.40;;;0.30;;
12681;SDS011;6405;59.208;18.216;2023-09-18T12:40:29;2.20;;;0.67;;
12681;SDS011;6405;59.208;18.216;2023-09-18T12:42:58;0.90;;;0.40;;
12681;SDS011;6405;59.208;18.216;2023-09-18T12:45:24;0.70;;;0.40;;
12681;SDS011;6405;59.208;18.216;2023-09-18T12:47:53;0.70;;;0.30;;
12681;SDS011;6405;59.208;18.216;2023-09-18T12:50:19;0.97;;;0.30;;
12681;SDS011;6405;59.208;18.216;2023-09-18T12:52:45;1.57;;;0.67;;
12681;SDS011;6405;59.208;18.216;2023-09-18T12:55:21;2.50;;;0.40;;
12681;SDS011;6405;59.208;18.216;2023-09-18T12:57:49;1.57;;;0.60;;
12681;SDS011;6405;59.208;18.216;2023-09-18T13:00:16;0.90;;;0.60;;
12681;SDS011;6405;59.208;18.216;2023-09-18T13:02:45;0.83;;;0.43;;
12681;SDS011;6405;59.208;18.216;2023-09-18T13:05:12;0.83;;;0.40;;
12681;SDS011;6405;59.208;18.216;2023-09-18T13:07:44;2.00;;;0.60;;
12681;SDS011;6405;59.208;18.216;2023-09-18T13:10:10;1.33;;;0.40;;
12681;SDS011;6405;59.208;18.216;2023-09-18T13:12:42;1.77;;;0.60;;
12681;SDS011;6405;59.208;18.216;2023-09-18T13:15:08;0.50;;;0.40;;
12681;SDS011;6405;59.208;18.216;2023-09-18T13:17:41;1.50;;;0.47;;
12681;SDS011;6405;59.208;18.216;2023-09-18T13:20:17;2.67;;;0.60;;
12681;SDS011;6405;59.208;18.216;2023-09-18T13:22:54;0.60;;;0.43;;
12681;SDS011;6405;59.208;18.216;2023-09-18T13:25:25;1.07;;;0.40;;
12681;SDS011;6405;59.208;18.216;2023-09-18T13:27:54;1.20;;;0.50;;
12681;SDS011;6405;59.208;18.216;2023-09-18T13:30:21;2.73;;;0.50;;
12681;SDS011;6405;59.208;18.216;2023-09-18T13:32:50;0.70;;;0.40;;
12681;SDS011;6405;59.208;18.216;2023-09-18T13:35:16;2.97;;;0.73;;
12681;SDS011;6405;59.208;18.216;2023-09-18T13:37:42;1.17;;;0.50;;
12681;SDS011;6405;59.208;18.216;2023-09-18T13:40:09;1.60;;;0.57;;
12681;SDS011;6405;59.208;18.216;2023-09-18T13:42:36;2.70;;;0.83;;
12681;SDS011;6405;59.208;18.216;2023-09-18T13:45:04;1.43;;;0.50;;
12681;SDS011;6405;59.208;18.216;2023-09-18T13:47:31;1.77;;;0.50;;
12681;SDS011;6405;59.208;18.216;2023-09-18T13:49:59;4.43;;;0.93;;
12681;SDS011;6405;59.208;18.216;2023-09-18T13:52:32;1.13;;;0.50;;
12681;SDS011;6405;59.208;18.216;2023-09-18T13:55:00;2.07;;;0.80;;
12681;SDS011;6405;59.208;18.216;2023-09-18T13:57:30;2.70;;;0.80;;
12681;SDS011;6405;59.208;18.216;2023-09-18T13:59:56;0.37;;;0.30;;
12681;SDS011;6405;59.208;18.216;2023-09-18T14:02:22;1.17;;;0.50;;
12681;SDS011;6405;59.208;18.216;2023-09-18T14:04:52;2.40;;;0.50;;
12681;SDS011;6405;59.208;18.216;2023-09-18T14:07:20;2.70;;;0.60;;
12681;SDS011;6405;59.208;18.216;2023-09-18T14:09:47;3.60;;;0.87;;
12681;SDS011;6405;59.208;18.216;2023-09-18T14:12:13;1.17;;;0.60;;
12681;SDS011;6405;59.208;18.216;2023-09-18T14:14:40;2.27;;;0.60;;
12681;SDS011;6405;59.208;18.216;2023-09-18T14:17:08;0.73;;;0.50;;
12681;SDS011;6405;59.208;18.216;2023-09-18T14:19:35;3.33;;;1.20;;
12681;SDS011;6405;59.208;18.216;2023-09-18T14:22:03;2.07;;;0.93;;
12681;SDS011;6405;59.208;18.216;2023-09-18T14:24:30;1.67;;;0.87;;
12681;SDS011;6405;59.208;18.216;2023-09-18T14:26:59;2.10;;;0.70;;
12681;SDS011;6405;59.208;18.216;2023-09-18T14:29:25;2.80;;;0.70;;
12681;SDS011;6405;59.208;18.216;2023-09-18T14:31:51;1.20;;;0.70;;
12681;SDS011;6405;59.208;18.216;2023-09-18T14:34:17;1.83;;;0.73;;
12681;SDS011;6405;59.208;18.216;2023-09-18T14:36:43;3.50;;;0.90;;
12681;SDS011;6405;59.208;18.216;2023-09-18T14:39:09;1.73;;;0.77;;
12681;SDS011;6405;59.208;18.216;2023-09-18T14:41:36;1.07;;;0.60;;
12681;SDS011;6405;59.208;18.216;2023-09-18T14:44:07;2.43;;;1.20;;
12681;SDS011;6405;59.208;18.216;2023-09-18T14:46:36;5.17;;;0.87;;
12681;SDS011;6405;59.208;18.216;2023-09-18T14:49:06;2.73;;;0.77;;
12681;SDS011;6405;59.208;18.216;2023-09-18T14:51:32;1.73;;;0.90;;
12681;SDS011;6405;59.208;18.216;2023-09-18T14:53:59;3.97;;;0.83;;
12681;SDS011;6405;59.208;18.216;2023-09-18T14:56:26;1.17;;;0.87;;
12681;SDS011;6405;59.208;18.216;2023-09-18T14:58:52;1.73;;;0.90;;
12681;SDS011;6405;59.208;18.216;2023-09-18T15:01:20;1.67;;;0.60;;
12681;SDS011;6405;59.208;18.216;2023-09-18T15:03:46;3.23;;;0.83;;
12681;SDS011;6405;59.208;18.216;2023-09-18T15:06:14;2.73;;;0.70;;
12681;SDS011;6405;59.208;18.216;2023-09-18T15:08:40;1.57;;;0.60;;
12681;SDS011;6405;59.208;18.216;2023-09-18T15:11:05;4.37;;;0.70;;
12681;SDS011;6405;59.208;18.216;2023-09-18T15:13:31;1.50;;;0.60;;